sensor_id;sensor_type;location;lat;lon;timestamp;pressure;altitude;pressure_sealevel;temperature;humidity
13954;BME280;7049;49.444;8.522;2023-02-12T00:04:26;80283.88;;;-3.47;91.85
13954;BME280;7049;49.444;8.522;2023-02-12T00:09:27;80285.97;;;-3.47;91.85
13954;BME280;7049;49.444;8.522;2023-02-12T00:14:29;80273.41;;;-3.47;91.72
13954;BME280;7049;49.444;8.522;2023-02-12T00:19:31;80277.59;;;-3.47;92.08
13954;BME280;7049;49.444;8.522;2023-02-12T00:24:33;80283.88;;;-3.47;92.16
13954;BME280;7049;49.444;8.522;2023-02-12T00:29:35;80279.69;;;-3.47;92.15
13954;BME280;7049;49.444;8.522;2023-02-12T00:34:40;80283.88;;;-3.47;92.30
13954;BME280;7049;49.444;8.522;2023-02-12T00:39:42;80281.78;;;-3.47;92.24
13954;BME280;7049;49.444;8.522;2023-02-12T00:44:54;80292.25;;;-3.47;92.57
13954;BME280;7049;49.444;8.522;2023-02-12T00:50:00;80292.25;;;-3.47;92.37
13954;BME280;7049;49.444;8.522;2023-02-12T00:55:02;80302.72;;;-3.47;92.30
13954;BME280;7049;49.444;8.522;2023-02-12T01:00:04;80300.63;;;-3.47;92.50
13954;BME280;7049;49.444;8.522;2023-02-12T01:05:08;80309.00;;;-3.47;92.59
13954;BME280;7049;49.444;8.522;2023-02-12T01:10:09;80311.09;;;-3.47;92.67
13954;BME280;7049;49.444;8.522;2023-02-12T01:15:11;80304.81;;;-3.47;92.89
13954;BME280;7049;49.444;8.522;2023-02-12T01:20:16;80300.63;;;-3.47;93.83
13954;BME280;7049;49.444;8.522;2023-02-12T01:25:18;80304.81;;;-3.47;94.68
13954;BME280;7049;49.444;8.522;2023-02-12T01:30:21;80309.00;;;-3.47;94.68
13954;BME280;7049;49.444;8.522;2023-02-12T01:35:25;80309.00;;;-3.47;94.52
13954;BME280;7049;49.444;8.522;2023-02-12T01:40:26;80304.81;;;-3.47;94.40
13954;BME280;7049;49.444;8.522;2023-02-12T01:45:52;80313.19;;;-3.47;94.41
13954;BME280;7049;49.444;8.522;2023-02-12T01:50:56;80311.09;;;-3.47;94.03
13954;BME280;7049;49.444;8.522;2023-02-12T01:56:01;80300.63;;;-3.47;93.93
13954;BME280;7049;49.444;8.522;2023-02-12T02:01:06;80300.63;;;-3.47;94.29
13954;BME280;7049;49.444;8.522;2023-02-12T02:06:11;80300.63;;;-3.47;94.28
13954;BME280;7049;49.444;8.522;2023-02-12T02:11:15;80302.72;;;-3.47;94.09
13954;BME280;7049;49.444;8.522;2023-02-12T02:16:35;80300.63;;;-3.47;94.01
13954;BME280;7049;49.444;8.522;2023-02-12T02:21:56;80298.53;;;-3.47;94.11
13954;BME280;7049;49.444;8.522;2023-02-12T02:27:10;80309.00;;;-3.47;94.08
13954;BME280;7049;49.444;8.522;2023-02-12T02:32:20;80309.00;;;-3.47;93.76
13954;BME280;7049;49.444;8.522;2023-02-12T02:37:26;80309.00;;;-3.47;94.06
13954;BME280;7049;49.444;8.522;2023-02-12T02:42:33;80309.00;;;-3.47;94.15
13954;BME280;7049;49.444;8.522;2023-02-12T02:47:39;80309.00;;;-3.47;94.47
13954;BME280;7049;49.444;8.522;2023-02-12T02:52:44;80300.63;;;-3.47;94.68
13954;BME280;7049;49.444;8.522;2023-02-12T02:57:51;80309.00;;;-3.47;94.92
13954;BME280;7049;49.444;8.522;2023-02-12T03:03:00;80296.44;;;-3.47;94.95
13954;BME280;7049;49.444;8.522;2023-02-12T03:08:06;80292.25;;;-3.47;95.36
13954;BME280;7049;49.444;8.522;2023-02-12T03:13:13;80296.44;;;-3.47;95.24
13954;BME280;7049;49.444;8.522;2023-02-12T03:18:20;80285.97;;;-3.47;95.42
13954;BME280;7049;49.444;8.522;2023-02-12T03:23:24;80296.44;;;-3.47;95.81
13954;BME280;7049;49.444;8.522;2023-02-12T03:28:29;80288.06;;;-3.47;96.18
13954;BME280;7049;49.444;8.522;2023-02-12T03:33:40;80298.53;;;-3.47;95.87
13954;BME280;7049;49.444;8.522;2023-02-12T03:38:48;80298.53;;;-3.47;95.80
13954;BME280;7049;49.444;8.522;2023-02-12T03:43:53;80300.63;;;-3.47;95.81
13954;BME280;7049;49.444;8.522;2023-02-12T03:49:00;80300.63;;;-3.47;95.87
13954;BME280;7049;49.444;8.522;2023-02-12T03:54:03;80298.53;;;-3.47;96.03
13954;BME280;7049;49.444;8.522;2023-02-12T03:59:06;80296.44;;;-3.47;96.19
13954;BME280;7049;49.444;8.522;2023-02-12T04:04:09;80302.72;;;-3.47;96.20
13954;BME280;7049;49.444;8.522;2023-02-12T04:09:11;80306.91;;;-3.47;96.28
13954;BME280;7049;49.444;8.522;2023-02-12T04:14:21;80311.09;;;-3.47;96.53
13954;BME280;7049;49.444;8.522;2023-02-12T04:19:37;80311.09;;;-3.47;96.47
13954;BME280;7049;49.444;8.522;2023-02-12T04:24:45;80317.38;;;-3.47;96.71
13954;BME280;7049;49.444;8.522;2023-02-12T04:29:52;80325.75;;;-3.47;96.67
13954;BME280;7049;49.444;8.522;2023-02-12T04:35:01;80329.94;;;-3.47;96.49
13954;BME280;7049;49.444;8.522;2023-02-12T04:40:10;80334.16;;;-3.47;96.29
13954;BME280;7049;49.444;8.522;2023-02-12T04:45:18;80334.16;;;-3.47;96.18
13954;BME280;7049;49.444;8.522;2023-02-12T04:50:22;80334.16;;;-3.47;96.07
13954;BME280;7049;49.444;8.522;2023-02-12T04:55:24;80340.44;;;-3.47;96.20
13954;BME280;7049;49.444;8.522;2023-02-12T05:00:25;80338.34;;;-3.47;96.05
13954;BME280;7049;49.444;8.522;2023-02-12T05:05:28;80342.53;;;-3.47;95.85
13954;BME280;7049;49.444;8.522;2023-02-12T05:10:30;80338.34;;;-3.47;95.88
13954;BME280;7049;49.444;8.522;2023-02-12T05:15:31;80334.16;;;-3.47;96.05
13954;BME280;7049;49.444;8.522;2023-02-12T05:20:34;80338.34;;;-3.47;96.20
13954;BME280;7049;49.444;8.522;2023-02-12T05:25:35;80338.34;;;-3.47;96.32
13954;BME280;7049;49.444;8.522;2023-02-12T05:30:36;80342.53;;;-3.47;96.37
13954;BME280;7049;49.444;8.522;2023-02-12T05:35:39;80348.81;;;-3.47;96.43
13954;BME280;7049;49.444;8.522;2023-02-12T05:40:40;80350.91;;;-3.47;96.38
13954;BME280;7049;49.444;8.522;2023-02-12T05:45:42;80350.91;;;-3.47;96.42
13954;BME280;7049;49.444;8.522;2023-02-12T05:50:45;80355.09;;;-3.47;96.31
13954;BME280;7049;49.444;8.522;2023-02-12T05:55:46;80355.09;;;-3.47;96.58
13954;BME280;7049;49.444;8.522;2023-02-12T06:00:48;80367.66;;;-3.47;96.37
13954;BME280;7049;49.444;8.522;2023-02-12T06:05:51;80373.94;;;-3.47;96.59
13954;BME280;7049;49.444;8.522;2023-02-12T06:10:52;80384.41;;;-3.47;96.63
13954;BME280;7049;49.444;8.522;2023-02-12T06:15:54;80384.41;;;-3.47;96.87
13954;BME280;7049;49.444;8.522;2023-02-12T06:20:57;80388.59;;;-3.47;96.99
13954;BME280;7049;49.444;8.522;2023-02-12T06:25:58;80396.97;;;-3.47;97.05
13954;BME280;7049;49.444;8.522;2023-02-12T06:30:59;80403.25;;;-3.47;97.23
13954;BME280;7049;49.444;8.522;2023-02-12T06:36:03;80407.44;;;-3.47;97.39
13954;BME280;7049;49.444;8.522;2023-02-12T06:41:05;80409.53;;;-3.47;97.72
13954;BME280;7049;49.444;8.522;2023-02-12T06:46:07;80409.53;;;-3.47;98.02
13954;BME280;7049;49.444;8.522;2023-02-12T06:51:12;80409.53;;;-3.47;97.96
13954;BME280;7049;49.444;8.522;2023-02-12T06:56:13;80411.63;;;-3.47;98.07
13954;BME280;7049;49.444;8.522;2023-02-12T07:01:16;80417.91;;;-3.47;98.40
13954;BME280;7049;49.444;8.522;2023-02-12T07:06:19;80420.00;;;-3.47;98.40
13954;BME280;7049;49.444;8.522;2023-02-12T07:11:22;80417.91;;;-3.47;98.89
13954;BME280;7049;49.444;8.522;2023-02-12T07:16:25;80411.63;;;-3.47;99.22
13954;BME280;7049;49.444;8.522;2023-02-12T07:21:28;80413.72;;;-3.47;99.02
13954;BME280;7049;49.444;8.522;2023-02-12T07:26:31;80417.91;;;-3.47;99.09
13954;BME280;7049;49.444;8.522;2023-02-12T07:31:32;80413.72;;;-3.47;98.96
13954;BME280;7049;49.444;8.522;2023-02-12T07:36:35;80413.72;;;-3.47;98.95
13954;BME280;7049;49.444;8.522;2023-02-12T07:41:37;80401.16;;;-3.47;99.04
13954;BME280;7049;49.444;8.522;2023-02-12T07:46:40;80392.78;;;-3.47;99.15
13954;BME280;7049;49.444;8.522;2023-02-12T07:51:44;80396.97;;;-3.47;99.66
13954;BME280;7049;49.444;8.522;2023-02-12T07:56:46;80392.78;;;-3.47;99.68
13954;BME280;7049;49.444;8.522;2023-02-12T08:01:49;80380.22;;;-3.47;99.77
13954;BME280;7049;49.444;8.522;2023-02-12T08:06:53;80378.13;;;-3.47;100.00
13954;BME280;7049;49.444;8.522;2023-02-12T08:11:55;80371.84;;;-3.47;100.00
13954;BME280;7049;49.444;8.522;2023-02-12T08:16:58;80369.75;;;-3.47;100.00
13954;BME280;7049;49.444;8.522;2023-02-12T08:22:01;80359.28;;;-3.47;100.00
13954;BME280;7049;49.444;8.522;2023-02-12T08:27:04;80359.28;;;-3.47;100.00
13954;BME280;7049;49.444;8.522;2023-02-12T08:32:05;80357.19;;;-3.47;100.00
13954;BME280;7049;49.444;8.522;2023-02-12T08:37:10;80350.91;;;-3.47;100.00
13954;BME280;7049;49.444;8.522;2023-02-12T08:42:12;80344.63;;;-3.47;100.00
13954;BME280;7049;49.444;8.522;2023-02-12T08:47:13;80342.53;;;-3.47;100.00
13954;BME280;7049;49.444;8.522;2023-02-12T08:52:16;80334.16;;;-3.47;100.00
13954;BME280;7049;49.444;8.522;2023-02-12T08:57:18;80325.75;;;-3.47;100.00
13954;BME280;7049;49.444;8.522;2023-02-12T09:02:20;80323.66;;;-3.47;100.00
13954;BME280;7049;49.444;8.522;2023-02-12T09:07:22;80313.19;;;-3.47;100.00
13954;BME280;7049;49.444;8.522;2023-02-12T09:12:24;80311.09;;;-3.47;100.00
13954;BME280;7049;49.444;8.522;2023-02-12T09:17:25;80309.00;;;-3.47;100.00
13954;BME280;7049;49.444;8.522;2023-02-12T09:22:29;80304.81;;;-3.47;100.00
13954;BME280;7049;49.444;8.522;2023-02-12T09:27:30;80296.44;;;-3.47;100.00
13954;BME280;7049;49.444;8.522;2023-02-12T09:32:32;80296.44;;;-3.47;100.00
13954;BME280;7049;49.444;8.522;2023-02-12T09:37:34;80288.06;;;-3.47;100.00
13954;BME280;7049;49.444;8.522;2023-02-12T09:42:49;80275.50;;;-3.47;100.00
13954;BME280;7049;49.444;8.522;2023-02-12T09:47:55;80269.22;;;-3.47;100.00
13954;BME280;7049;49.444;8.522;2023-02-12T09:53:04;80265.03;;;-3.47;100.00
13954;BME280;7049;49.444;8.522;2023-02-12T09:58:12;80254.56;;;-3.47;99.77
13954;BME280;7049;49.444;8.522;2023-02-12T10:03:16;80254.56;;;-3.47;99.69
13954;BME280;7049;49.444;8.522;2023-02-12T10:08:36;80246.19;;;-3.47;99.43
13954;BME280;7049;49.444;8.522;2023-02-12T10:13:46;80235.72;;;-3.47;99.28
13954;BME280;7049;49.444;8.522;2023-02-12T10:19:02;80218.97;;;-3.47;99.27
13954;BME280;7049;49.444;8.522;2023-02-12T10:24:21;80204.31;;;-3.47;99.18
13954;BME280;7049;49.444;8.522;2023-02-12T10:29:28;80183.38;;;-3.47;98.97
13954;BME280;7049;49.444;8.522;2023-02-12T10:34:33;80168.72;;;-3.47;98.82
13954;BME280;7049;49.444;8.522;2023-02-12T10:39:40;80156.16;;;-3.47;98.73
13954;BME280;7049;49.444;8.522;2023-02-12T10:44:43;80135.22;;;-3.47;98.51
13954;BME280;7049;49.444;8.522;2023-02-12T10:49:45;80118.47;;;-3.47;98.59
13954;BME280;7049;49.444;8.522;2023-02-12T10:54:50;80097.53;;;-3.47;98.24
13954;BME280;7049;49.444;8.522;2023-02-12T10:59:53;80087.06;;;-3.47;98.41
13954;BME280;7049;49.444;8.522;2023-02-12T11:04:58;80064.03;;;-3.47;98.30
13954;BME280;7049;49.444;8.522;2023-02-12T11:10:01;80053.56;;;-3.47;98.17
13954;BME280;7049;49.444;8.522;2023-02-12T11:15:09;80032.63;;;-3.47;98.03
13954;BME280;7049;49.444;8.522;2023-02-12T11:20:20;80013.78;;;-3.47;97.77
13954;BME280;7049;49.444;8.522;2023-02-12T11:25:26;79999.13;;;-3.47;97.68
13954;BME280;7049;49.444;8.522;2023-02-12T11:30:28;79980.28;;;-3.47;97.58
13954;BME280;7049;49.444;8.522;2023-02-12T11:35:30;79953.06;;;-3.47;97.31
13954;BME280;7049;49.444;8.522;2023-02-12T11:40:36;79936.31;;;-3.47;96.61
13954;BME280;7049;49.444;8.522;2023-02-12T11:45:42;79911.19;;;-3.47;95.52
13954;BME280;7049;49.444;8.522;2023-02-12T11:50:46;79894.44;;;-3.47;94.56
13954;BME280;7049;49.444;8.522;2023-02-12T11:55:58;79877.69;;;-3.47;93.84
13954;BME280;7049;49.444;8.522;2023-02-12T12:01:05;79869.31;;;-3.47;93.03
13954;BME280;7049;49.444;8.522;2023-02-12T12:06:18;79858.84;;;-3.47;92.22
13954;BME280;7049;49.444;8.522;2023-02-12T12:11:27;79842.09;;;-3.47;91.48
13954;BME280;7049;49.444;8.522;2023-02-12T12:16:35;79827.44;;;-3.47;91.20
13954;BME280;7049;49.444;8.522;2023-02-12T12:22:02;79802.31;;;-3.47;90.96
13954;BME280;7049;49.444;8.522;2023-02-12T12:27:11;79787.66;;;-3.47;90.01
13954;BME280;7049;49.444;8.522;2023-02-12T12:32:35;79775.09;;;-3.47;89.44
13954;BME280;7049;49.444;8.522;2023-02-12T12:37:42;79760.44;;;-3.47;87.54
13954;BME280;7049;49.444;8.522;2023-02-12T12:43:08;79747.88;;;-3.47;86.78
13954;BME280;7049;49.444;8.522;2023-02-12T12:48:19;79726.94;;;-3.47;86.29
13954;BME280;7049;49.444;8.522;2023-02-12T12:53:36;79701.81;;;-3.47;86.30
13954;BME280;7049;49.444;8.522;2023-02-12T12:59:11;79680.88;;;-3.47;84.83
13954;BME280;7049;49.444;8.522;2023-02-12T13:04:36;79634.81;;;-3.47;84.85
13954;BME280;7049;49.444;8.522;2023-02-12T13:09:53;79609.69;;;-3.47;83.59
13954;BME280;7049;49.444;8.522;2023-02-12T13:15:02;79559.44;;;-3.47;83.38
13954;BME280;7049;49.444;8.522;2023-02-12T13:20:13;79540.59;;;-3.47;82.51
13954;BME280;7049;49.444;8.522;2023-02-12T13:25:21;79528.03;;;-3.47;81.55
13954;BME280;7049;49.444;8.522;2023-02-12T13:30:28;79532.22;;;-3.47;80.49
13954;BME280;7049;49.444;8.522;2023-02-12T13:35:32;79528.03;;;-3.47;80.42
13954;BME280;7049;49.444;8.522;2023-02-12T13:40:35;79525.94;;;-3.47;79.55
13954;BME280;7049;49.444;8.522;2023-02-12T13:45:47;79505.03;;;-3.47;79.78
13954;BME280;7049;49.444;8.522;2023-02-12T13:50:56;79486.19;;;-3.47;78.89
13954;BME280;7049;49.444;8.522;2023-02-12T13:56:06;79479.91;;;-3.47;78.11
13954;BME280;7049;49.444;8.522;2023-02-12T14:01:37;79475.72;;;-3.47;76.79
13954;BME280;7049;49.444;8.522;2023-02-12T14:06:51;79456.88;;;-3.47;76.71
13954;BME280;7049;49.444;8.522;2023-02-12T14:11:54;79446.41;;;-3.47;74.30
13954;BME280;7049;49.444;8.522;2023-02-12T14:22:59;79412.91;;;-3.47;74.09
13954;BME280;7049;49.444;8.522;2023-02-12T14:28:06;79404.53;;;-3.47;73.94
13954;BME280;7049;49.444;8.522;2023-02-12T14:33:26;79398.25;;;-3.47;71.84
13954;BME280;7049;49.444;8.522;2023-02-12T14:38:58;79391.97;;;-3.47;73.20
13954;BME280;7049;49.444;8.522;2023-02-12T14:49:45;79375.22;;;-3.47;72.57
13954;BME280;7049;49.444;8.522;2023-02-12T14:54:50;79381.50;;;-3.47;71.59
13954;BME280;7049;49.444;8.522;2023-02-12T14:59:56;79371.03;;;-3.47;72.31
13954;BME280;7049;49.444;8.522;2023-02-12T15:05:05;79368.94;;;-3.47;72.25
13954;BME280;7049;49.444;8.522;2023-02-12T15:10:13;79371.03;;;-3.47;71.70
13954;BME280;7049;49.444;8.522;2023-02-12T15:15:20;79371.03;;;-3.47;71.83
13954;BME280;7049;49.444;8.522;2023-02-12T15:20:32;79375.22;;;-3.47;71.24
13954;BME280;7049;49.444;8.522;2023-02-12T15:25:36;79398.25;;;-3.47;72.07
13954;BME280;7049;49.444;8.522;2023-02-12T15:30:41;79412.91;;;-3.47;72.72
13954;BME280;7049;49.444;8.522;2023-02-12T15:35:44;79431.75;;;-3.47;73.20
13954;BME280;7049;49.444;8.522;2023-02-12T15:40:53;79448.50;;;-3.47;73.57
13954;BME280;7049;49.444;8.522;2023-02-12T15:45:55;79458.97;;;-3.47;74.22
13954;BME280;7049;49.444;8.522;2023-02-12T15:51:08;79471.53;;;-3.47;74.55
13954;BME280;7049;49.444;8.522;2023-02-12T15:56:16;79488.28;;;-3.47;75.18
13954;BME280;7049;49.444;8.522;2023-02-12T16:01:19;79507.09;;;-3.47;75.62
13954;BME280;7049;49.444;8.522;2023-02-12T16:06:24;79521.75;;;-3.47;75.98
13954;BME280;7049;49.444;8.522;2023-02-12T16:11:27;79538.50;;;-3.47;76.29
13954;BME280;7049;49.444;8.522;2023-02-12T16:16:39;79555.25;;;-3.47;76.53
13954;BME280;7049;49.444;8.522;2023-02-12T16:21:48;79578.28;;;-3.47;77.14
13954;BME280;7049;49.444;8.522;2023-02-12T16:26:51;79601.31;;;-3.47;78.03
13954;BME280;7049;49.444;8.522;2023-02-12T16:31:55;79626.44;;;-3.47;78.87
13954;BME280;7049;49.444;8.522;2023-02-12T16:36:58;79643.19;;;-3.47;79.41
13954;BME280;7049;49.444;8.522;2023-02-12T16:42:00;79664.13;;;-3.47;79.85
13954;BME280;7049;49.444;8.522;2023-02-12T16:47:01;79689.25;;;-3.47;80.53
13954;BME280;7049;49.444;8.522;2023-02-12T16:52:29;79706.00;;;-3.47;80.98
13954;BME280;7049;49.444;8.522;2023-02-12T16:57:31;79729.03;;;-3.47;81.67
13954;BME280;7049;49.444;8.522;2023-02-12T17:02:33;79752.06;;;-3.47;82.39
13954;BME280;7049;49.444;8.522;2023-02-12T17:07:36;79775.09;;;-3.47;82.68
13954;BME280;7049;49.444;8.522;2023-02-12T17:12:44;79806.50;;;-3.47;82.67
13954;BME280;7049;49.444;8.522;2023-02-12T17:17:45;79823.25;;;-3.47;82.84
13954;BME280;7049;49.444;8.522;2023-02-12T17:22:50;79854.66;;;-3.47;83.35
13954;BME280;7049;49.444;8.522;2023-02-12T17:27:52;79873.50;;;-3.47;83.56
13954;BME280;7049;49.444;8.522;2023-02-12T17:32:53;79902.81;;;-3.47;83.59
13954;BME280;7049;49.444;8.522;2023-02-12T17:37:56;79930.03;;;-3.47;84.32
13954;BME280;7049;49.444;8.522;2023-02-12T17:42:59;79948.88;;;-3.47;84.73
13954;BME280;7049;49.444;8.522;2023-02-12T17:48:01;79974.00;;;-3.47;85.34
13954;BME280;7049;49.444;8.522;2023-02-12T17:53:04;79994.94;;;-3.47;85.88
13954;BME280;7049;49.444;8.522;2023-02-12T17:58:06;80007.50;;;-3.47;86.26
13954;BME280;7049;49.444;8.522;2023-02-12T18:03:08;80028.44;;;-3.47;86.75
13954;BME280;7049;49.444;8.522;2023-02-12T18:08:11;80051.47;;;-3.47;87.08
13954;BME280;7049;49.444;8.522;2023-02-12T18:13:13;80068.22;;;-3.47;87.45
13954;BME280;7049;49.444;8.522;2023-02-12T18:18:15;80078.69;;;-3.47;87.69
13954;BME280;7049;49.444;8.522;2023-02-12T18:23:18;80095.44;;;-3.47;87.85
13954;BME280;7049;49.444;8.522;2023-02-12T18:28:20;80112.19;;;-3.47;88.12
13954;BME280;7049;49.444;8.522;2023-02-12T18:33:21;80128.94;;;-3.47;88.71
13954;BME280;7049;49.444;8.522;2023-02-12T18:38:24;80139.41;;;-3.47;88.47
13954;BME280;7049;49.444;8.522;2023-02-12T18:43:28;80154.06;;;-3.47;88.56
13954;BME280;7049;49.444;8.522;2023-02-12T18:48:29;80162.44;;;-3.47;88.61
13954;BME280;7049;49.444;8.522;2023-02-12T18:53:32;80177.09;;;-3.47;89.01
13954;BME280;7049;49.444;8.522;2023-02-12T18:58:34;80193.84;;;-3.47;89.11
13954;BME280;7049;49.444;8.522;2023-02-12T19:03:36;80212.69;;;-3.47;89.59
13954;BME280;7049;49.444;8.522;2023-02-12T19:08:39;80221.06;;;-3.47;89.86
13954;BME280;7049;49.444;8.522;2023-02-12T19:13:40;80233.63;;;-3.47;90.36
13954;BME280;7049;49.444;8.522;2023-02-12T19:18:42;80242.00;;;-3.47;90.63
13954;BME280;7049;49.444;8.522;2023-02-12T19:23:45;80250.38;;;-3.47;90.70
13954;BME280;7049;49.444;8.522;2023-02-12T19:28:47;80254.56;;;-3.47;90.65
13954;BME280;7049;49.444;8.522;2023-02-12T19:33:53;80267.13;;;-3.47;90.70
13954;BME280;7049;49.444;8.522;2023-02-12T19:38:56;80281.78;;;-3.47;90.85
13954;BME280;7049;49.444;8.522;2023-02-12T19:44:00;80292.25;;;-3.47;91.11
13954;BME280;7049;49.444;8.522;2023-02-12T19:49:02;80306.91;;;-3.47;90.93
13954;BME280;7049;49.444;8.522;2023-02-12T19:54:05;80321.56;;;-3.47;91.14
13954;BME280;7049;49.444;8.522;2023-02-12T19:59:07;80338.34;;;-3.47;90.90
13954;BME280;7049;49.444;8.522;2023-02-12T20:04:10;80348.81;;;-3.47;91.04
13954;BME280;7049;49.444;8.522;2023-02-12T20:09:13;80355.09;;;-3.47;91.12
13954;BME280;7049;49.444;8.522;2023-02-12T20:14:15;80365.56;;;-3.47;91.08
13954;BME280;7049;49.444;8.522;2023-02-12T20:19:18;80376.03;;;-3.47;91.01
13954;BME280;7049;49.444;8.522;2023-02-12T20:24:23;80386.50;;;-3.47;91.03
13954;BME280;7049;49.444;8.522;2023-02-12T20:29:24;80396.97;;;-3.47;91.10
13954;BME280;7049;49.444;8.522;2023-02-12T20:34:26;80405.34;;;-3.47;91.14
13954;BME280;7049;49.444;8.522;2023-02-12T20:39:28;80413.72;;;-3.47;91.56
13954;BME280;7049;49.444;8.522;2023-02-12T20:44:30;80426.28;;;-3.47;92.01
13954;BME280;7049;49.444;8.522;2023-02-12T20:49:33;80434.66;;;-3.47;91.82
13954;BME280;7049;49.444;8.522;2023-02-12T20:54:36;80440.94;;;-3.47;91.60
13954;BME280;7049;49.444;8.522;2023-02-12T20:59:38;80443.03;;;-3.47;92.09
13954;BME280;7049;49.444;8.522;2023-02-12T21:04:40;80455.59;;;-3.47;92.41
13954;BME280;7049;49.444;8.522;2023-02-12T21:09:43;80461.88;;;-3.47;92.18
13954;BME280;7049;49.444;8.522;2023-02-12T21:14:44;80476.53;;;-3.47;91.85
13954;BME280;7049;49.444;8.522;2023-02-12T21:19:45;80482.81;;;-3.47;92.58
13954;BME280;7049;49.444;8.522;2023-02-12T21:24:48;80493.28;;;-3.47;92.49
13954;BME280;7049;49.444;8.522;2023-02-12T21:29:50;80499.56;;;-3.47;93.00
13954;BME280;7049;49.444;8.522;2023-02-12T21:34:51;80503.75;;;-3.47;92.48
13954;BME280;7049;49.444;8.522;2023-02-12T21:39:54;80514.22;;;-3.47;92.43
13954;BME280;7049;49.444;8.522;2023-02-12T21:44:55;80522.59;;;-3.47;92.54
13954;BME280;7049;49.444;8.522;2023-02-12T21:49:56;80535.16;;;-3.47;92.75
13954;BME280;7049;49.444;8.522;2023-02-12T21:54:59;80539.38;;;-3.47;93.36
13954;BME280;7049;49.444;8.522;2023-02-12T22:00:01;80549.84;;;-3.47;92.90
13954;BME280;7049;49.444;8.522;2023-02-12T22:05:02;80560.31;;;-3.47;92.61
13954;BME280;7049;49.444;8.522;2023-02-12T22:10:06;80568.69;;;-3.47;92.97
13954;BME280;7049;49.444;8.522;2023-02-12T22:15:08;80570.78;;;-3.47;92.68
13954;BME280;7049;49.444;8.522;2023-02-12T22:20:11;80581.25;;;-3.47;93.39
13954;BME280;7049;49.444;8.522;2023-02-12T22:25:13;80589.63;;;-3.47;93.39
13954;BME280;7049;49.444;8.522;2023-02-12T22:30:15;80589.63;;;-3.47;94.62
13954;BME280;7049;49.444;8.522;2023-02-12T22:35:17;80593.81;;;-3.47;94.65
13954;BME280;7049;49.444;8.522;2023-02-12T22:40:20;80598.00;;;-3.47;94.95
13954;BME280;7049;49.444;8.522;2023-02-12T22:45:22;80600.09;;;-3.47;94.67
13954;BME280;7049;49.444;8.522;2023-02-12T22:50:23;80606.38;;;-3.47;94.30
13954;BME280;7049;49.444;8.522;2023-02-12T22:55:26;80612.66;;;-3.47;94.10
13954;BME280;7049;49.444;8.522;2023-02-12T23:00:27;80629.41;;;-3.47;94.20
13954;BME280;7049;49.444;8.522;2023-02-12T23:05:29;80631.50;;;-3.47;93.73
13954;BME280;7049;49.444;8.522;2023-02-12T23:10:32;80635.69;;;-3.47;94.02
13954;BME280;7049;49.444;8.522;2023-02-12T23:15:33;80648.25;;;-3.47;93.88
13954;BME280;7049;49.444;8.522;2023-02-12T23:20:35;80654.53;;;-3.47;93.97
13954;BME280;7049;49.444;8.522;2023-02-12T23:25:38;80656.63;;;-3.47;93.93
13954;BME280;7049;49.444;8.522;2023-02-12T23:30:39;80665.00;;;-3.47;93.81
13954;BME280;7049;49.444;8.522;2023-02-12T23:35:41;80667.09;;;-3.47;94.04
13954;BME280;7049;49.444;8.522;2023-02-12T23:40:43;80671.28;;;-3.47;94.05
13954;BME280;7049;49.444;8.522;2023-02-12T23:45:45;80677.56;;;-3.47;93.92
13954;BME280;7049;49.444;8.522;2023-02-12T23:50:46;80677.56;;;-3.47;93.73
13954;BME280;7049;49.444;8.522;2023-02-12T23:55:49;80681.75;;;-3.47;93.49
